sensor_id;sensor_type;location;lat;lon;timestamp;temperature;humidity
49503;DHT22;35409;48.776;9.204;2022-08-21T00:01:27;16.50;99.90
49503;DHT22;35409;48.776;9.204;2022-08-21T00:03:55;16.40;99.90
49503;DHT22;35409;48.776;9.204;2022-08-21T00:06:21;16.40;99.90
49503;DHT22;35409;48.776;9.204;2022-08-21T00:08:48;16.30;99.90
49503;DHT22;35409;48.776;9.204;2022-08-21T00:11:14;16.20;99.90
49503;DHT22;35409;48.776;9.204;2022-08-21T00:13:39;16.20;99.90
49503;DHT22;35409;48.776;9.204;2022-08-21T00:16:05;16.10;99.90
49503;DHT22;35409;48.776;9.204;2022-08-21T00:18:31;16.10;99.90
49503;DHT22;35409;48.776;9.204;2022-08-21T00:20:57;16.10;99.90
49503;DHT22;35409;48.776;9.204;2022-08-21T00:23:22;16.10;99.90
49503;DHT22;35409;48.776;9.204;2022-08-21T00:25:51;16.00;99.90
49503;DHT22;35409;48.776;9.204;2022-08-21T00:28:17;16.00;99.90
49503;DHT22;35409;48.776;9.204;2022-08-21T00:55:24;15.70;99.90
49503;DHT22;35409;48.776;9.204;2022-08-21T00:57:54;15.60;99.90
49503;DHT22;35409;48.776;9.204;2022-08-21T01:00:30;15.50;99.90
49503;DHT22;35409;48.776;9.204;2022-08-21T01:02:57;15.40;99.90
49503;DHT22;35409;48.776;9.204;2022-08-21T01:05:24;15.40;99.90
49503;DHT22;35409;48.776;9.204;2022-08-21T01:07:50;15.40;99.90
49503;DHT22;35409;48.776;9.204;2022-08-21T01:10:16;15.40;99.90
49503;DHT22;35409;48.776;9.204;2022-08-21T01:12:43;15.30;99.90
49503;DHT22;35409;48.776;9.204;2022-08-21T01:15:09;15.30;99.90
49503;DHT22;35409;48.776;9.204;2022-08-21T01:17:36;15.30;99.90
49503;DHT22;35409;48.776;9.204;2022-08-21T01:20:05;15.30;99.90
49503;DHT22;35409;48.776;9.204;2022-08-21T01:22:31;15.20;99.90
49503;DHT22;35409;48.776;9.204;2022-08-21T02:01:39;15.00;99.90
49503;DHT22;35409;48.776;9.204;2022-08-21T02:06:32;14.80;99.90
49503;DHT22;35409;48.776;9.204;2022-08-21T02:08:58;14.70;99.90
49503;DHT22;35409;48.776;9.204;2022-08-21T02:11:24;14.60;99.90
49503;DHT22;35409;48.776;9.204;2022-08-21T02:13:50;14.60;99.90
49503;DHT22;35409;48.776;9.204;2022-08-21T02:16:16;14.50;99.90
49503;DHT22;35409;48.776;9.204;2022-08-21T02:18:41;14.50;99.90
49503;DHT22;35409;48.776;9.204;2022-08-21T02:21:07;14.40;99.90
49503;DHT22;35409;48.776;9.204;2022-08-21T02:23:33;14.40;99.90
49503;DHT22;35409;48.776;9.204;2022-08-21T02:26:01;14.40;99.90
49503;DHT22;35409;48.776;9.204;2022-08-21T02:28:27;14.40;99.90
49503;DHT22;35409;48.776;9.204;2022-08-21T02:30:56;14.40;99.90
49503;DHT22;35409;48.776;9.204;2022-08-21T02:33:23;14.30;99.90
49503;DHT22;35409;48.776;9.204;2022-08-21T02:35:49;14.30;99.90
49503;DHT22;35409;48.776;9.204;2022-08-21T02:38:28;14.30;99.90
49503;DHT22;35409;48.776;9.204;2022-08-21T02:40:54;14.30;99.90
49503;DHT22;35409;48.776;9.204;2022-08-21T02:43:21;14.30;99.90
49503;DHT22;35409;48.776;9.204;2022-08-21T02:45:48;14.20;99.90
49503;DHT22;35409;48.776;9.204;2022-08-21T02:48:17;14.20;99.90
49503;DHT22;35409;48.776;9.204;2022-08-21T02:50:51;14.30;99.90
49503;DHT22;35409;48.776;9.204;2022-08-21T02:53:17;14.30;99.90
49503;DHT22;35409;48.776;9.204;2022-08-21T02:55:45;14.30;99.90
49503;DHT22;35409;48.776;9.204;2022-08-21T02:58:13;14.30;99.90
49503;DHT22;35409;48.776;9.204;2022-08-21T03:00:39;14.30;99.90
49503;DHT22;35409;48.776;9.204;2022-08-21T03:03:05;14.30;99.90
49503;DHT22;35409;48.776;9.204;2022-08-21T03:05:32;14.20;99.90
49503;DHT22;35409;48.776;9.204;2022-08-21T03:08:01;14.20;99.90
49503;DHT22;35409;48.776;9.204;2022-08-21T03:10:27;14.20;99.90
49503;DHT22;35409;48.776;9.204;2022-08-21T03:12:53;14.20;99.90
49503;DHT22;35409;48.776;9.204;2022-08-21T03:15:21;14.20;99.90
49503;DHT22;35409;48.776;9.204;2022-08-21T03:17:49;14.10;99.90
49503;DHT22;35409;48.776;9.204;2022-08-21T03:20:18;14.10;99.90
49503;DHT22;35409;48.776;9.204;2022-08-21T03:22:44;14.10;99.90
49503;DHT22;35409;48.776;9.204;2022-08-21T03:25:10;14.20;99.90
49503;DHT22;35409;48.776;9.204;2022-08-21T03:27:37;14.10;99.90
49503;DHT22;35409;48.776;9.204;2022-08-21T03:30:04;14.10;99.90
49503;DHT22;35409;48.776;9.204;2022-08-21T03:32:31;14.20;99.90
49503;DHT22;35409;48.776;9.204;2022-08-21T03:34:57;14.20;99.90
49503;DHT22;35409;48.776;9.204;2022-08-21T03:37:27;14.20;99.90
49503;DHT22;35409;48.776;9.204;2022-08-21T03:39:53;14.20;99.90
49503;DHT22;35409;48.776;9.204;2022-08-21T03:42:18;14.20;99.90
49503;DHT22;35409;48.776;9.204;2022-08-21T03:44:44;14.10;99.90
49503;DHT22;35409;48.776;9.204;2022-08-21T03:47:10;14.10;99.90
49503;DHT22;35409;48.776;9.204;2022-08-21T03:49:39;14.10;99.90
49503;DHT22;35409;48.776;9.204;2022-08-21T03:52:04;14.00;99.90
49503;DHT22;35409;48.776;9.204;2022-08-21T03:54:30;14.00;99.90
49503;DHT22;35409;48.776;9.204;2022-08-21T03:56:56;14.00;99.90
49503;DHT22;35409;48.776;9.204;2022-08-21T03:59:23;13.90;99.90
49503;DHT22;35409;48.776;9.204;2022-08-21T04:01:58;13.90;99.90
49503;DHT22;35409;48.776;9.204;2022-08-21T04:04:28;13.90;99.90
49503;DHT22;35409;48.776;9.204;2022-08-21T04:06:55;13.90;99.90
49503;DHT22;35409;48.776;9.204;2022-08-21T04:09:20;13.80;99.90
49503;DHT22;35409;48.776;9.204;2022-08-21T04:11:46;13.80;99.90
49503;DHT22;35409;48.776;9.204;2022-08-21T04:14:13;13.80;99.90
49503;DHT22;35409;48.776;9.204;2022-08-21T04:16:40;13.70;99.90
49503;DHT22;35409;48.776;9.204;2022-08-21T04:19:07;13.70;99.90
49503;DHT22;35409;48.776;9.204;2022-08-21T04:21:33;13.70;99.90
49503;DHT22;35409;48.776;9.204;2022-08-21T04:23:58;13.70;99.90
49503;DHT22;35409;48.776;9.204;2022-08-21T04:26:25;13.70;99.90
49503;DHT22;35409;48.776;9.204;2022-08-21T04:28:51;13.60;99.90
49503;DHT22;35409;48.776;9.204;2022-08-21T04:31:17;13.60;99.90
49503;DHT22;35409;48.776;9.204;2022-08-21T04:33:43;13.60;99.90
49503;DHT22;35409;48.776;9.204;2022-08-21T04:36:10;13.60;99.90
49503;DHT22;35409;48.776;9.204;2022-08-21T04:38:36;13.60;99.90
49503;DHT22;35409;48.776;9.204;2022-08-21T04:41:02;13.60;99.90
49503;DHT22;35409;48.776;9.204;2022-08-21T04:43:29;13.60;99.90
49503;DHT22;35409;48.776;9.204;2022-08-21T04:45:57;13.60;99.90
49503;DHT22;35409;48.776;9.204;2022-08-21T04:48:23;13.60;99.90
49503;DHT22;35409;48.776;9.204;2022-08-21T04:56:25;13.80;99.90
49503;DHT22;35409;48.776;9.204;2022-08-21T04:58:53;13.80;99.90
49503;DHT22;35409;48.776;9.204;2022-08-21T05:01:25;13.90;99.90
49503;DHT22;35409;48.776;9.204;2022-08-21T05:03:55;13.90;99.90
49503;DHT22;35409;48.776;9.204;2022-08-21T05:06:22;14.00;99.90
49503;DHT22;35409;48.776;9.204;2022-08-21T05:08:50;14.00;99.90
49503;DHT22;35409;48.776;9.204;2022-08-21T05:11:18;14.10;99.90
49503;DHT22;35409;48.776;9.204;2022-08-21T05:13:45;14.10;99.90
49503;DHT22;35409;48.776;9.204;2022-08-21T05:16:11;14.20;99.90
49503;DHT22;35409;48.776;9.204;2022-08-21T05:18:37;14.20;99.90
49503;DHT22;35409;48.776;9.204;2022-08-21T05:21:03;14.30;99.90
49503;DHT22;35409;48.776;9.204;2022-08-21T05:23:28;14.30;99.90
49503;DHT22;35409;48.776;9.204;2022-08-21T05:25:54;14.40;99.90
49503;DHT22;35409;48.776;9.204;2022-08-21T05:28:20;14.50;99.90
49503;DHT22;35409;48.776;9.204;2022-08-21T05:30:46;14.60;99.90
49503;DHT22;35409;48.776;9.204;2022-08-21T05:33:12;14.60;99.90
49503;DHT22;35409;48.776;9.204;2022-08-21T05:35:38;14.70;99.90
49503;DHT22;35409;48.776;9.204;2022-08-21T05:38:04;14.80;99.90
49503;DHT22;35409;48.776;9.204;2022-08-21T05:40:30;14.90;99.90
49503;DHT22;35409;48.776;9.204;2022-08-21T05:42:57;14.90;99.90
49503;DHT22;35409;48.776;9.204;2022-08-21T05:45:30;15.00;99.90
49503;DHT22;35409;48.776;9.204;2022-08-21T05:47:55;15.10;99.90
49503;DHT22;35409;48.776;9.204;2022-08-21T05:50:21;15.20;99.90
49503;DHT22;35409;48.776;9.204;2022-08-21T05:52:47;15.30;99.90
49503;DHT22;35409;48.776;9.204;2022-08-21T05:55:13;15.50;99.90
49503;DHT22;35409;48.776;9.204;2022-08-21T05:57:38;15.60;99.90
49503;DHT22;35409;48.776;9.204;2022-08-21T06:00:07;15.70;99.90
49503;DHT22;35409;48.776;9.204;2022-08-21T06:02:35;15.80;99.90
49503;DHT22;35409;48.776;9.204;2022-08-21T06:05:02;16.00;99.90
49503;DHT22;35409;48.776;9.204;2022-08-21T06:07:27;16.10;99.90
49503;DHT22;35409;48.776;9.204;2022-08-21T06:09:54;16.20;99.90
49503;DHT22;35409;48.776;9.204;2022-08-21T06:12:20;16.30;99.90
49503;DHT22;35409;48.776;9.204;2022-08-21T06:14:45;16.40;99.90
49503;DHT22;35409;48.776;9.204;2022-08-21T06:17:12;16.60;99.90
49503;DHT22;35409;48.776;9.204;2022-08-21T06:19:38;16.70;99.90
49503;DHT22;35409;48.776;9.204;2022-08-21T06:22:04;16.80;99.90
49503;DHT22;35409;48.776;9.204;2022-08-21T06:24:30;16.90;99.90
49503;DHT22;35409;48.776;9.204;2022-08-21T06:26:56;17.00;99.90
49503;DHT22;35409;48.776;9.204;2022-08-21T06:29:22;17.10;99.90
49503;DHT22;35409;48.776;9.204;2022-08-21T06:31:49;17.20;99.90
49503;DHT22;35409;48.776;9.204;2022-08-21T06:34:15;17.30;99.90
49503;DHT22;35409;48.776;9.204;2022-08-21T06:36:41;17.50;99.90
49503;DHT22;35409;48.776;9.204;2022-08-21T06:39:07;17.60;99.90
49503;DHT22;35409;48.776;9.204;2022-08-21T06:41:33;17.80;99.90
49503;DHT22;35409;48.776;9.204;2022-08-21T06:43:59;18.00;99.90
49503;DHT22;35409;48.776;9.204;2022-08-21T06:46:27;18.10;99.90
49503;DHT22;35409;48.776;9.204;2022-08-21T06:48:53;18.20;99.90
49503;DHT22;35409;48.776;9.204;2022-08-21T06:51:19;18.40;99.90
49503;DHT22;35409;48.776;9.204;2022-08-21T06:53:45;18.50;99.90
49503;DHT22;35409;48.776;9.204;2022-08-21T06:56:11;18.60;99.90
49503;DHT22;35409;48.776;9.204;2022-08-21T06:58:37;18.80;99.90
49503;DHT22;35409;48.776;9.204;2022-08-21T07:01:06;18.90;99.90
49503;DHT22;35409;48.776;9.204;2022-08-21T07:03:40;19.10;99.90
49503;DHT22;35409;48.776;9.204;2022-08-21T07:06:07;19.10;99.90
49503;DHT22;35409;48.776;9.204;2022-08-21T07:08:33;19.10;99.90
49503;DHT22;35409;48.776;9.204;2022-08-21T07:11:02;19.30;99.90
49503;DHT22;35409;48.776;9.204;2022-08-21T07:13:28;19.40;99.90
49503;DHT22;35409;48.776;9.204;2022-08-21T07:15:54;19.50;99.90
49503;DHT22;35409;48.776;9.204;2022-08-21T07:18:19;19.50;99.90
49503;DHT22;35409;48.776;9.204;2022-08-21T07:20:45;19.70;99.90
49503;DHT22;35409;48.776;9.204;2022-08-21T07:23:20;19.80;99.90
49503;DHT22;35409;48.776;9.204;2022-08-21T07:25:46;19.90;99.90
49503;DHT22;35409;48.776;9.204;2022-08-21T07:28:12;20.00;99.90
49503;DHT22;35409;48.776;9.204;2022-08-21T07:30:38;20.10;99.90
49503;DHT22;35409;48.776;9.204;2022-08-21T07:33:03;20.30;99.90
49503;DHT22;35409;48.776;9.204;2022-08-21T07:35:29;20.30;99.90
49503;DHT22;35409;48.776;9.204;2022-08-21T07:37:56;20.50;99.90
49503;DHT22;35409;48.776;9.204;2022-08-21T07:40:22;20.50;99.90
49503;DHT22;35409;48.776;9.204;2022-08-21T07:42:48;20.50;99.90
49503;DHT22;35409;48.776;9.204;2022-08-21T07:45:18;20.50;99.90
49503;DHT22;35409;48.776;9.204;2022-08-21T07:47:43;20.60;99.90
49503;DHT22;35409;48.776;9.204;2022-08-21T07:50:11;20.70;99.90
49503;DHT22;35409;48.776;9.204;2022-08-21T07:52:37;20.80;99.90
49503;DHT22;35409;48.776;9.204;2022-08-21T07:55:03;20.80;99.90
49503;DHT22;35409;48.776;9.204;2022-08-21T07:57:29;20.90;99.90
49503;DHT22;35409;48.776;9.204;2022-08-21T07:59:57;21.00;99.90
49503;DHT22;35409;48.776;9.204;2022-08-21T08:02:28;21.10;99.90
49503;DHT22;35409;48.776;9.204;2022-08-21T08:04:54;21.20;99.90
49503;DHT22;35409;48.776;9.204;2022-08-21T08:07:23;21.30;99.90
49503;DHT22;35409;48.776;9.204;2022-08-21T08:09:48;21.40;99.90
49503;DHT22;35409;48.776;9.204;2022-08-21T08:12:14;21.60;99.90
49503;DHT22;35409;48.776;9.204;2022-08-21T08:14:40;21.70;99.70
49503;DHT22;35409;48.776;9.204;2022-08-21T08:17:05;21.60;99.90
49503;DHT22;35409;48.776;9.204;2022-08-21T08:19:31;21.70;99.80
49503;DHT22;35409;48.776;9.204;2022-08-21T08:21:57;21.80;99.30
49503;DHT22;35409;48.776;9.204;2022-08-21T08:24:22;21.80;99.30
49503;DHT22;35409;48.776;9.204;2022-08-21T08:26:48;22.00;99.40
49503;DHT22;35409;48.776;9.204;2022-08-21T08:29:13;22.20;99.00
49503;DHT22;35409;48.776;9.204;2022-08-21T08:31:39;22.30;98.50
49503;DHT22;35409;48.776;9.204;2022-08-21T08:34:05;22.40;98.20
49503;DHT22;35409;48.776;9.204;2022-08-21T08:36:34;22.60;98.00
49503;DHT22;35409;48.776;9.204;2022-08-21T08:39:02;22.70;97.90
49503;DHT22;35409;48.776;9.204;2022-08-21T08:41:28;22.80;98.00
49503;DHT22;35409;48.776;9.204;2022-08-21T08:43:59;23.00;97.40
49503;DHT22;35409;48.776;9.204;2022-08-21T08:52:01;23.20;96.50
49503;DHT22;35409;48.776;9.204;2022-08-21T08:54:40;23.20;96.40
49503;DHT22;35409;48.776;9.204;2022-08-21T08:57:20;23.20;96.10
49503;DHT22;35409;48.776;9.204;2022-08-21T08:59:52;23.30;95.80
49503;DHT22;35409;48.776;9.204;2022-08-21T09:02:21;23.30;95.60
49503;DHT22;35409;48.776;9.204;2022-08-21T09:04:49;23.30;95.10
49503;DHT22;35409;48.776;9.204;2022-08-21T09:07:25;23.50;95.10
49503;DHT22;35409;48.776;9.204;2022-08-21T09:16:29;23.80;92.80
49503;DHT22;35409;48.776;9.204;2022-08-21T09:19:51;24.00;92.90
49503;DHT22;35409;48.776;9.204;2022-08-21T09:22:23;24.00;92.10
49503;DHT22;35409;48.776;9.204;2022-08-21T09:27:40;24.30;91.20
49503;DHT22;35409;48.776;9.204;2022-08-21T09:30:06;24.40;90.50
49503;DHT22;35409;48.776;9.204;2022-08-21T09:32:34;24.50;90.50
49503;DHT22;35409;48.776;9.204;2022-08-21T09:37:34;24.70;86.30
49503;DHT22;35409;48.776;9.204;2022-08-21T09:40:13;24.70;84.40
49503;DHT22;35409;48.776;9.204;2022-08-21T09:42:40;24.70;84.70
49503;DHT22;35409;48.776;9.204;2022-08-21T09:45:15;24.70;81.60
49503;DHT22;35409;48.776;9.204;2022-08-21T09:47:44;24.70;81.50
49503;DHT22;35409;48.776;9.204;2022-08-21T09:50:24;24.80;83.00
49503;DHT22;35409;48.776;9.204;2022-08-21T09:52:58;24.90;81.50
49503;DHT22;35409;48.776;9.204;2022-08-21T09:56:04;25.00;80.90
49503;DHT22;35409;48.776;9.204;2022-08-21T09:58:50;25.10;81.10
49503;DHT22;35409;48.776;9.204;2022-08-21T10:01:19;25.20;81.30
49503;DHT22;35409;48.776;9.204;2022-08-21T10:03:46;25.40;80.20
49503;DHT22;35409;48.776;9.204;2022-08-21T10:06:25;25.40;80.10
49503;DHT22;35409;48.776;9.204;2022-08-21T10:09:02;25.50;80.20
49503;DHT22;35409;48.776;9.204;2022-08-21T10:11:28;25.60;79.10
49503;DHT22;35409;48.776;9.204;2022-08-21T10:14:19;25.80;79.10
49503;DHT22;35409;48.776;9.204;2022-08-21T10:17:14;25.80;78.30
49503;DHT22;35409;48.776;9.204;2022-08-21T10:20:00;26.00;77.50
49503;DHT22;35409;48.776;9.204;2022-08-21T10:30:14;26.00;76.80
49503;DHT22;35409;48.776;9.204;2022-08-21T10:36:42;26.30;75.10
49503;DHT22;35409;48.776;9.204;2022-08-21T10:39:21;26.20;75.20
49503;DHT22;35409;48.776;9.204;2022-08-21T10:47:49;26.50;74.60
49503;DHT22;35409;48.776;9.204;2022-08-21T10:55:22;26.60;74.00
49503;DHT22;35409;48.776;9.204;2022-08-21T11:00:21;26.50;73.50
49503;DHT22;35409;48.776;9.204;2022-08-21T11:03:11;26.50;74.20
49503;DHT22;35409;48.776;9.204;2022-08-21T11:05:48;26.50;73.50
49503;DHT22;35409;48.776;9.204;2022-08-21T11:08:23;26.50;72.70
49503;DHT22;35409;48.776;9.204;2022-08-21T11:11:05;26.40;73.20
49503;DHT22;35409;48.776;9.204;2022-08-21T11:13:42;26.10;72.80
49503;DHT22;35409;48.776;9.204;2022-08-21T11:19:21;26.20;73.10
49503;DHT22;35409;48.776;9.204;2022-08-21T11:21:58;26.50;73.30
49503;DHT22;35409;48.776;9.204;2022-08-21T11:24:40;26.70;72.40
49503;DHT22;35409;48.776;9.204;2022-08-21T11:27:26;27.00;71.00
49503;DHT22;35409;48.776;9.204;2022-08-21T11:29:58;27.10;70.50
49503;DHT22;35409;48.776;9.204;2022-08-21T11:38:53;27.50;69.50
49503;DHT22;35409;48.776;9.204;2022-08-21T11:41:31;27.60;69.70
49503;DHT22;35409;48.776;9.204;2022-08-21T11:47:33;27.90;68.90
49503;DHT22;35409;48.776;9.204;2022-08-21T11:50:37;27.90;68.50
49503;DHT22;35409;48.776;9.204;2022-08-21T11:53:30;28.00;68.20
49503;DHT22;35409;48.776;9.204;2022-08-21T11:56:25;27.90;67.80
49503;DHT22;35409;48.776;9.204;2022-08-21T11:58:56;27.70;67.50
49503;DHT22;35409;48.776;9.204;2022-08-21T12:01:27;27.50;67.60
49503;DHT22;35409;48.776;9.204;2022-08-21T12:04:01;27.50;68.50
49503;DHT22;35409;48.776;9.204;2022-08-21T12:06:40;27.60;67.30
49503;DHT22;35409;48.776;9.204;2022-08-21T12:09:30;27.70;66.70
49503;DHT22;35409;48.776;9.204;2022-08-21T12:12:09;27.90;66.20
49503;DHT22;35409;48.776;9.204;2022-08-21T12:14:47;28.00;65.70
49503;DHT22;35409;48.776;9.204;2022-08-21T12:17:34;28.00;65.80
49503;DHT22;35409;48.776;9.204;2022-08-21T12:20:26;28.00;65.60
49503;DHT22;35409;48.776;9.204;2022-08-21T12:23:01;28.00;64.90
49503;DHT22;35409;48.776;9.204;2022-08-21T12:25:40;27.90;65.30
49503;DHT22;35409;48.776;9.204;2022-08-21T12:28:09;27.60;65.20
49503;DHT22;35409;48.776;9.204;2022-08-21T12:30:41;27.20;65.60
49503;DHT22;35409;48.776;9.204;2022-08-21T12:33:31;26.90;65.80
49503;DHT22;35409;48.776;9.204;2022-08-21T12:36:09;26.60;66.30
49503;DHT22;35409;48.776;9.204;2022-08-21T12:38:52;26.40;66.40
49503;DHT22;35409;48.776;9.204;2022-08-21T12:41:24;26.50;66.40
49503;DHT22;35409;48.776;9.204;2022-08-21T12:44:05;26.80;65.70
49503;DHT22;35409;48.776;9.204;2022-08-21T12:46:42;27.10;66.10
49503;DHT22;35409;48.776;9.204;2022-08-21T12:49:19;27.50;65.50
49503;DHT22;35409;48.776;9.204;2022-08-21T12:51:59;27.80;65.70
49503;DHT22;35409;48.776;9.204;2022-08-21T12:54:30;28.30;64.20
49503;DHT22;35409;48.776;9.204;2022-08-21T12:57:04;28.50;63.50
49503;DHT22;35409;48.776;9.204;2022-08-21T12:59:31;28.70;63.60
49503;DHT22;35409;48.776;9.204;2022-08-21T13:01:59;28.90;63.40
49503;DHT22;35409;48.776;9.204;2022-08-21T13:04:38;29.10;62.90
49503;DHT22;35409;48.776;9.204;2022-08-21T13:07:11;29.30;62.00
49503;DHT22;35409;48.776;9.204;2022-08-21T13:09:53;29.40;61.80
49503;DHT22;35409;48.776;9.204;2022-08-21T13:12:22;29.50;61.40
49503;DHT22;35409;48.776;9.204;2022-08-21T13:14:48;29.70;61.00
49503;DHT22;35409;48.776;9.204;2022-08-21T13:17:18;29.90;61.10
49503;DHT22;35409;48.776;9.204;2022-08-21T13:19:56;30.00;61.10
49503;DHT22;35409;48.776;9.204;2022-08-21T13:22:24;30.00;60.50
49503;DHT22;35409;48.776;9.204;2022-08-21T13:24:50;30.00;60.20
49503;DHT22;35409;48.776;9.204;2022-08-21T13:27:30;30.00;59.70
49503;DHT22;35409;48.776;9.204;2022-08-21T13:30:10;30.00;59.60
49503;DHT22;35409;48.776;9.204;2022-08-21T13:32:41;29.90;59.30
49503;DHT22;35409;48.776;9.204;2022-08-21T13:35:45;30.00;60.00
49503;DHT22;35409;48.776;9.204;2022-08-21T13:38:02;30.10;59.40
49503;DHT22;35409;48.776;9.204;2022-08-21T13:40:31;30.30;58.80
49503;DHT22;35409;48.776;9.204;2022-08-21T13:42:59;30.30;58.70
49503;DHT22;35409;48.776;9.204;2022-08-21T13:45:30;30.30;58.00
49503;DHT22;35409;48.776;9.204;2022-08-21T13:48:03;30.30;57.90
49503;DHT22;35409;48.776;9.204;2022-08-21T13:50:31;30.30;58.10
49503;DHT22;35409;48.776;9.204;2022-08-21T13:53:01;30.30;58.20
49503;DHT22;35409;48.776;9.204;2022-08-21T13:55:54;30.10;58.10
49503;DHT22;35409;48.776;9.204;2022-08-21T13:58:26;30.10;58.30
49503;DHT22;35409;48.776;9.204;2022-08-21T14:00:53;29.90;57.70
49503;DHT22;35409;48.776;9.204;2022-08-21T14:05:52;29.70;59.10
49503;DHT22;35409;48.776;9.204;2022-08-21T14:08:36;29.70;59.20
49503;DHT22;35409;48.776;9.204;2022-08-21T14:11:12;29.70;57.60
49503;DHT22;35409;48.776;9.204;2022-08-21T14:13:45;29.50;57.50
49503;DHT22;35409;48.776;9.204;2022-08-21T14:19:21;29.50;58.10
49503;DHT22;35409;48.776;9.204;2022-08-21T14:21:47;29.60;58.10
49503;DHT22;35409;48.776;9.204;2022-08-21T14:24:24;29.80;58.00
49503;DHT22;35409;48.776;9.204;2022-08-21T14:26:53;29.90;57.70
49503;DHT22;35409;48.776;9.204;2022-08-21T14:29:22;30.10;56.60
49503;DHT22;35409;48.776;9.204;2022-08-21T14:31:57;30.10;57.00
49503;DHT22;35409;48.776;9.204;2022-08-21T14:34:28;30.30;57.30
49503;DHT22;35409;48.776;9.204;2022-08-21T14:36:55;30.30;56.80
49503;DHT22;35409;48.776;9.204;2022-08-21T14:39:21;30.00;57.10
49503;DHT22;35409;48.776;9.204;2022-08-21T14:41:47;29.70;57.10
49503;DHT22;35409;48.776;9.204;2022-08-21T14:44:15;29.60;58.20
49503;DHT22;35409;48.776;9.204;2022-08-21T14:46:42;29.80;57.50
49503;DHT22;35409;48.776;9.204;2022-08-21T14:49:07;30.10;56.90
49503;DHT22;35409;48.776;9.204;2022-08-21T14:51:33;30.30;56.80
49503;DHT22;35409;48.776;9.204;2022-08-21T14:53:59;30.50;55.50
49503;DHT22;35409;48.776;9.204;2022-08-21T14:56:25;30.50;55.60
49503;DHT22;35409;48.776;9.204;2022-08-21T14:58:52;30.50;56.00
49503;DHT22;35409;48.776;9.204;2022-08-21T15:01:20;30.70;55.80
49503;DHT22;35409;48.776;9.204;2022-08-21T15:03:46;30.80;55.60
49503;DHT22;35409;48.776;9.204;2022-08-21T15:06:14;30.90;55.30
49503;DHT22;35409;48.776;9.204;2022-08-21T15:08:41;31.10;55.90
49503;DHT22;35409;48.776;9.204;2022-08-21T15:11:09;31.30;54.20
49503;DHT22;35409;48.776;9.204;2022-08-21T15:13:36;31.30;54.00
49503;DHT22;35409;48.776;9.204;2022-08-21T15:16:03;31.40;54.00
49503;DHT22;35409;48.776;9.204;2022-08-21T15:18:29;31.40;53.80
49503;DHT22;35409;48.776;9.204;2022-08-21T15:20:56;31.40;53.80
49503;DHT22;35409;48.776;9.204;2022-08-21T15:23:22;31.60;53.40
49503;DHT22;35409;48.776;9.204;2022-08-21T15:25:48;31.70;53.40
49503;DHT22;35409;48.776;9.204;2022-08-21T15:28:16;32.00;52.50
49503;DHT22;35409;48.776;9.204;2022-08-21T15:30:42;32.00;52.80
49503;DHT22;35409;48.776;9.204;2022-08-21T15:33:08;32.10;52.60
49503;DHT22;35409;48.776;9.204;2022-08-21T15:35:35;32.20;52.20
49503;DHT22;35409;48.776;9.204;2022-08-21T15:38:01;32.10;52.40
49503;DHT22;35409;48.776;9.204;2022-08-21T15:40:27;32.10;53.00
49503;DHT22;35409;48.776;9.204;2022-08-21T15:42:59;32.00;52.50
49503;DHT22;35409;48.776;9.204;2022-08-21T15:45:26;31.90;52.50
49503;DHT22;35409;48.776;9.204;2022-08-21T15:47:52;31.50;52.40
49503;DHT22;35409;48.776;9.204;2022-08-21T15:50:19;31.10;52.30
49503;DHT22;35409;48.776;9.204;2022-08-21T15:52:44;30.80;53.30
49503;DHT22;35409;48.776;9.204;2022-08-21T15:55:11;30.60;53.10
49503;DHT22;35409;48.776;9.204;2022-08-21T15:57:38;30.50;53.60
49503;DHT22;35409;48.776;9.204;2022-08-21T16:00:20;30.50;52.80
49503;DHT22;35409;48.776;9.204;2022-08-21T16:02:52;30.60;52.90
49503;DHT22;35409;48.776;9.204;2022-08-21T16:05:19;30.70;52.80
49503;DHT22;35409;48.776;9.204;2022-08-21T16:07:45;30.60;53.10
49503;DHT22;35409;48.776;9.204;2022-08-21T16:10:13;30.40;53.20
49503;DHT22;35409;48.776;9.204;2022-08-21T16:12:42;30.20;53.10
49503;DHT22;35409;48.776;9.204;2022-08-21T16:15:11;30.10;53.00
49503;DHT22;35409;48.776;9.204;2022-08-21T16:17:39;30.10;52.90
49503;DHT22;35409;48.776;9.204;2022-08-21T16:20:09;30.00;53.10
49503;DHT22;35409;48.776;9.204;2022-08-21T16:22:36;30.00;53.20
49503;DHT22;35409;48.776;9.204;2022-08-21T16:25:02;29.90;53.30
49503;DHT22;35409;48.776;9.204;2022-08-21T16:27:28;29.70;53.80
49503;DHT22;35409;48.776;9.204;2022-08-21T16:29:54;29.40;54.50
49503;DHT22;35409;48.776;9.204;2022-08-21T16:32:20;29.10;54.20
49503;DHT22;35409;48.776;9.204;2022-08-21T16:34:47;28.90;54.50
49503;DHT22;35409;48.776;9.204;2022-08-21T16:37:14;28.60;54.70
49503;DHT22;35409;48.776;9.204;2022-08-21T16:39:40;28.20;54.70
49503;DHT22;35409;48.776;9.204;2022-08-21T16:42:06;28.00;54.90
49503;DHT22;35409;48.776;9.204;2022-08-21T16:44:34;27.80;55.20
49503;DHT22;35409;48.776;9.204;2022-08-21T16:47:00;27.60;56.00
49503;DHT22;35409;48.776;9.204;2022-08-21T16:49:26;27.40;56.60
49503;DHT22;35409;48.776;9.204;2022-08-21T16:51:52;27.30;56.20
49503;DHT22;35409;48.776;9.204;2022-08-21T16:54:18;27.20;55.90
49503;DHT22;35409;48.776;9.204;2022-08-21T16:56:44;27.20;55.60
49503;DHT22;35409;48.776;9.204;2022-08-21T16:59:11;27.10;56.20
49503;DHT22;35409;48.776;9.204;2022-08-21T17:01:37;27.00;56.60
49503;DHT22;35409;48.776;9.204;2022-08-21T17:04:04;26.90;55.80
49503;DHT22;35409;48.776;9.204;2022-08-21T17:06:30;26.80;56.90
49503;DHT22;35409;48.776;9.204;2022-08-21T17:08:57;26.60;57.00
49503;DHT22;35409;48.776;9.204;2022-08-21T17:11:38;26.50;57.90
49503;DHT22;35409;48.776;9.204;2022-08-21T17:14:12;26.40;89.00
49503;DHT22;35409;48.776;9.204;2022-08-21T17:16:41;26.40;56.80
49503;DHT22;35409;48.776;9.204;2022-08-21T17:19:08;26.30;57.10
49503;DHT22;35409;48.776;9.204;2022-08-21T17:21:34;26.20;56.70
49503;DHT22;35409;48.776;9.204;2022-08-21T17:24:00;26.10;57.50
49503;DHT22;35409;48.776;9.204;2022-08-21T17:26:26;26.00;57.40
49503;DHT22;35409;48.776;9.204;2022-08-21T17:28:52;25.90;57.80
49503;DHT22;35409;48.776;9.204;2022-08-21T17:31:17;25.90;56.90
49503;DHT22;35409;48.776;9.204;2022-08-21T17:33:50;25.80;57.30
49503;DHT22;35409;48.776;9.204;2022-08-21T17:36:19;25.80;57.20
49503;DHT22;35409;48.776;9.204;2022-08-21T17:38:45;25.70;57.90
49503;DHT22;35409;48.776;9.204;2022-08-21T17:41:12;25.60;57.40
49503;DHT22;35409;48.776;9.204;2022-08-21T17:43:39;25.50;58.00
49503;DHT22;35409;48.776;9.204;2022-08-21T17:46:05;25.40;58.70
49503;DHT22;35409;48.776;9.204;2022-08-21T17:48:32;25.20;58.60
49503;DHT22;35409;48.776;9.204;2022-08-21T17:50:57;25.10;59.20
49503;DHT22;35409;48.776;9.204;2022-08-21T17:53:23;25.10;59.60
49503;DHT22;35409;48.776;9.204;2022-08-21T17:55:49;24.90;60.00